sensor_id;sensor_type;location;lat;lon;timestamp;temperature;humidity
76239;SHT30;65043;48.392;-4.472;2023-03-24T00:00:03;13.03;77.78
76239;SHT30;65043;48.392;-4.472;2023-03-24T00:02:33;13.02;77.85
76239;SHT30;65043;48.392;-4.472;2023-03-24T00:05:02;13.03;77.71
76239;SHT30;65043;48.392;-4.472;2023-03-24T00:07:28;12.99;77.71
76239;SHT30;65043;48.392;-4.472;2023-03-24T00:09:55;12.99;77.77
76239;SHT30;65043;48.392;-4.472;2023-03-24T00:12:20;12.99;77.78
76239;SHT30;65043;48.392;-4.472;2023-03-24T00:14:45;13.01;77.61
76239;SHT30;65043;48.392;-4.472;2023-03-24T00:17:12;13.03;77.60
76239;SHT30;65043;48.392;-4.472;2023-03-24T00:19:38;13.02;77.61
76239;SHT30;65043;48.392;-4.472;2023-03-24T00:22:06;13.02;77.63
76239;SHT30;65043;48.392;-4.472;2023-03-24T00:24:32;13.01;77.48
76239;SHT30;65043;48.392;-4.472;2023-03-24T00:26:58;13.01;77.48
76239;SHT30;65043;48.392;-4.472;2023-03-24T00:29:25;13.01;77.55
76239;SHT30;65043;48.392;-4.472;2023-03-24T00:31:51;12.99;77.57
76239;SHT30;65043;48.392;-4.472;2023-03-24T00:34:18;12.98;77.76
76239;SHT30;65043;48.392;-4.472;2023-03-24T00:36:47;12.98;77.70
76239;SHT30;65043;48.392;-4.472;2023-03-24T00:39:14;12.98;77.67
76239;SHT30;65043;48.392;-4.472;2023-03-24T00:41:42;12.96;77.73
76239;SHT30;65043;48.392;-4.472;2023-03-24T00:44:10;12.96;77.74
76239;SHT30;65043;48.392;-4.472;2023-03-24T00:46:51;12.95;77.81
76239;SHT30;65043;48.392;-4.472;2023-03-24T00:49:26;12.98;77.85
76239;SHT30;65043;48.392;-4.472;2023-03-24T00:52:19;12.95;77.83
76239;SHT30;65043;48.392;-4.472;2023-03-24T00:54:50;12.98;77.85
76239;SHT30;65043;48.392;-4.472;2023-03-24T00:57:17;12.99;77.88
76239;SHT30;65043;48.392;-4.472;2023-03-24T00:59:50;12.99;77.85
76239;SHT30;65043;48.392;-4.472;2023-03-24T01:02:24;12.98;77.84
76239;SHT30;65043;48.392;-4.472;2023-03-24T01:04:56;12.96;77.79
76239;SHT30;65043;48.392;-4.472;2023-03-24T01:07:26;12.99;77.80
76239;SHT30;65043;48.392;-4.472;2023-03-24T01:09:53;12.95;77.94
76239;SHT30;65043;48.392;-4.472;2023-03-24T01:12:30;12.96;77.86
76239;SHT30;65043;48.392;-4.472;2023-03-24T01:15:00;12.93;78.07
76239;SHT30;65043;48.392;-4.472;2023-03-24T01:17:27;12.95;78.00
76239;SHT30;65043;48.392;-4.472;2023-03-24T01:19:54;12.96;77.84
76239;SHT30;65043;48.392;-4.472;2023-03-24T01:22:20;12.96;77.96
76239;SHT30;65043;48.392;-4.472;2023-03-24T01:24:47;13.01;77.80
76239;SHT30;65043;48.392;-4.472;2023-03-24T01:27:13;12.98;77.82
76239;SHT30;65043;48.392;-4.472;2023-03-24T01:29:39;12.96;78.02
76239;SHT30;65043;48.392;-4.472;2023-03-24T01:32:05;12.99;77.89
76239;SHT30;65043;48.392;-4.472;2023-03-24T01:34:31;12.96;77.93
76239;SHT30;65043;48.392;-4.472;2023-03-24T01:36:57;12.95;78.01
76239;SHT30;65043;48.392;-4.472;2023-03-24T01:39:23;12.99;78.06
76239;SHT30;65043;48.392;-4.472;2023-03-24T01:41:48;13.01;77.93
76239;SHT30;65043;48.392;-4.472;2023-03-24T01:44:36;13.01;77.97
76239;SHT30;65043;48.392;-4.472;2023-03-24T01:47:05;12.98;78.03
76239;SHT30;65043;48.392;-4.472;2023-03-24T01:49:40;12.98;78.23
76239;SHT30;65043;48.392;-4.472;2023-03-24T01:52:12;12.99;78.35
76239;SHT30;65043;48.392;-4.472;2023-03-24T01:54:46;13.03;78.46
76239;SHT30;65043;48.392;-4.472;2023-03-24T01:57:29;13.05;78.46
76239;SHT30;65043;48.392;-4.472;2023-03-24T01:59:57;13.02;78.04
76239;SHT30;65043;48.392;-4.472;2023-03-24T02:02:24;12.99;77.95
76239;SHT30;65043;48.392;-4.472;2023-03-24T02:04:58;12.98;78.05
76239;SHT30;65043;48.392;-4.472;2023-03-24T02:09:55;12.96;78.00
76239;SHT30;65043;48.392;-4.472;2023-03-24T02:12:20;12.96;77.96
76239;SHT30;65043;48.392;-4.472;2023-03-24T02:14:46;12.98;77.92
76239;SHT30;65043;48.392;-4.472;2023-03-24T02:31:39;12.84;77.38
76239;SHT30;65043;48.392;-4.472;2023-03-24T02:45:23;12.80;77.00
76239;SHT30;65043;48.392;-4.472;2023-03-24T02:50:56;12.74;77.09
76239;SHT30;65043;48.392;-4.472;2023-03-24T02:56:10;12.77;77.09
76239;SHT30;65043;48.392;-4.472;2023-03-24T02:58:58;12.77;77.06
76239;SHT30;65043;48.392;-4.472;2023-03-24T03:01:25;12.77;76.93
76239;SHT30;65043;48.392;-4.472;2023-03-24T03:04:02;12.77;77.01
76239;SHT30;65043;48.392;-4.472;2023-03-24T03:06:32;12.81;76.91
76239;SHT30;65043;48.392;-4.472;2023-03-24T03:09:06;12.80;76.77
76239;SHT30;65043;48.392;-4.472;2023-03-24T03:11:33;12.81;76.94
76239;SHT30;65043;48.392;-4.472;2023-03-24T03:16:52;12.81;76.81
76239;SHT30;65043;48.392;-4.472;2023-03-24T03:19:21;12.81;77.03
76239;SHT30;65043;48.392;-4.472;2023-03-24T03:21:49;12.77;77.03
76239;SHT30;65043;48.392;-4.472;2023-03-24T03:24:30;12.78;77.30
76239;SHT30;65043;48.392;-4.472;2023-03-24T03:27:00;12.80;77.53
76239;SHT30;65043;48.392;-4.472;2023-03-24T03:29:31;12.78;76.46
76239;SHT30;65043;48.392;-4.472;2023-03-24T03:32:01;12.78;76.01
76239;SHT30;65043;48.392;-4.472;2023-03-24T03:40:06;12.64;75.11
76239;SHT30;65043;48.392;-4.472;2023-03-24T03:42:34;12.62;74.92
76239;SHT30;65043;48.392;-4.472;2023-03-24T03:45:00;12.58;74.85
76239;SHT30;65043;48.392;-4.472;2023-03-24T03:47:26;12.55;74.98
76239;SHT30;65043;48.392;-4.472;2023-03-24T03:49:51;12.55;74.89
76239;SHT30;65043;48.392;-4.472;2023-03-24T03:52:17;12.55;75.07
76239;SHT30;65043;48.392;-4.472;2023-03-24T03:54:43;12.53;75.06
76239;SHT30;65043;48.392;-4.472;2023-03-24T03:57:11;12.51;75.38
76239;SHT30;65043;48.392;-4.472;2023-03-24T03:59:38;12.54;75.42
76239;SHT30;65043;48.392;-4.472;2023-03-24T04:07:16;12.55;75.70
76239;SHT30;65043;48.392;-4.472;2023-03-24T04:10:04;12.58;76.02
76239;SHT30;65043;48.392;-4.472;2023-03-24T04:20:47;12.62;76.96
76239;SHT30;65043;48.392;-4.472;2023-03-24T04:32:13;12.54;75.30
76239;SHT30;65043;48.392;-4.472;2023-03-24T04:34:47;12.55;75.20
76239;SHT30;65043;48.392;-4.472;2023-03-24T04:37:24;12.51;74.77
76239;SHT30;65043;48.392;-4.472;2023-03-24T04:39:52;12.47;74.05
76239;SHT30;65043;48.392;-4.472;2023-03-24T04:42:27;12.44;74.56
76239;SHT30;65043;48.392;-4.472;2023-03-24T04:44:55;12.43;74.56
76239;SHT30;65043;48.392;-4.472;2023-03-24T04:47:25;12.40;74.46
76239;SHT30;65043;48.392;-4.472;2023-03-24T04:49:59;12.41;74.91
76239;SHT30;65043;48.392;-4.472;2023-03-24T04:52:25;12.41;74.69
76239;SHT30;65043;48.392;-4.472;2023-03-24T04:54:52;12.34;74.88
76239;SHT30;65043;48.392;-4.472;2023-03-24T04:57:17;12.38;75.13
76239;SHT30;65043;48.392;-4.472;2023-03-24T04:59:43;12.38;74.84
76239;SHT30;65043;48.392;-4.472;2023-03-24T05:02:08;12.38;75.13
76239;SHT30;65043;48.392;-4.472;2023-03-24T05:04:34;12.43;75.22
76239;SHT30;65043;48.392;-4.472;2023-03-24T05:07:03;12.44;75.21
76239;SHT30;65043;48.392;-4.472;2023-03-24T05:09:28;12.40;75.64
76239;SHT30;65043;48.392;-4.472;2023-03-24T05:11:55;12.37;75.79
76239;SHT30;65043;48.392;-4.472;2023-03-24T05:14:21;12.40;76.11
76239;SHT30;65043;48.392;-4.472;2023-03-24T05:16:47;12.41;76.27
76239;SHT30;65043;48.392;-4.472;2023-03-24T05:19:12;12.40;76.45
76239;SHT30;65043;48.392;-4.472;2023-03-24T05:21:37;12.44;76.72
76239;SHT30;65043;48.392;-4.472;2023-03-24T05:24:03;12.44;76.87
76239;SHT30;65043;48.392;-4.472;2023-03-24T05:26:29;12.45;76.98
76239;SHT30;65043;48.392;-4.472;2023-03-24T05:28:55;12.47;76.89
76239;SHT30;65043;48.392;-4.472;2023-03-24T05:31:20;12.43;74.93
76239;SHT30;65043;48.392;-4.472;2023-03-24T05:33:46;12.36;73.83
76239;SHT30;65043;48.392;-4.472;2023-03-24T05:36:12;12.34;74.02
76239;SHT30;65043;48.392;-4.472;2023-03-24T05:38:38;12.31;73.60
76239;SHT30;65043;48.392;-4.472;2023-03-24T05:41:04;12.30;73.90
76239;SHT30;65043;48.392;-4.472;2023-03-24T05:43:30;12.26;72.77
76239;SHT30;65043;48.392;-4.472;2023-03-24T05:45:56;12.22;73.83
76239;SHT30;65043;48.392;-4.472;2023-03-24T05:48:24;12.20;73.97
76239;SHT30;65043;48.392;-4.472;2023-03-24T05:50:51;12.23;74.42
76239;SHT30;65043;48.392;-4.472;2023-03-24T05:53:16;12.26;73.70
76239;SHT30;65043;48.392;-4.472;2023-03-24T05:55:41;12.26;74.03
76239;SHT30;65043;48.392;-4.472;2023-03-24T05:58:07;12.27;74.63
76239;SHT30;65043;48.392;-4.472;2023-03-24T06:00:32;12.30;74.88
76239;SHT30;65043;48.392;-4.472;2023-03-24T06:02:59;12.30;75.18
76239;SHT30;65043;48.392;-4.472;2023-03-24T06:05:25;12.37;75.38
76239;SHT30;65043;48.392;-4.472;2023-03-24T06:07:51;12.40;75.57
76239;SHT30;65043;48.392;-4.472;2023-03-24T06:10:22;12.44;75.78
76239;SHT30;65043;48.392;-4.472;2023-03-24T06:12:50;12.44;75.83
76239;SHT30;65043;48.392;-4.472;2023-03-24T06:15:16;12.45;75.95
76239;SHT30;65043;48.392;-4.472;2023-03-24T06:17:41;12.48;76.03
76239;SHT30;65043;48.392;-4.472;2023-03-24T06:20:09;12.51;75.92
76239;SHT30;65043;48.392;-4.472;2023-03-24T06:22:41;12.51;76.03
76239;SHT30;65043;48.392;-4.472;2023-03-24T06:25:07;12.54;75.92
76239;SHT30;65043;48.392;-4.472;2023-03-24T06:27:34;12.55;75.75
76239;SHT30;65043;48.392;-4.472;2023-03-24T06:30:00;12.53;75.88
76239;SHT30;65043;48.392;-4.472;2023-03-24T06:32:26;12.50;75.96
76239;SHT30;65043;48.392;-4.472;2023-03-24T06:34:51;12.50;76.07
76239;SHT30;65043;48.392;-4.472;2023-03-24T06:37:17;12.51;76.21
76239;SHT30;65043;48.392;-4.472;2023-03-24T06:39:44;12.47;76.47
76239;SHT30;65043;48.392;-4.472;2023-03-24T06:42:10;12.48;76.52
76239;SHT30;65043;48.392;-4.472;2023-03-24T06:44:35;12.50;76.71
76239;SHT30;65043;48.392;-4.472;2023-03-24T06:47:01;12.53;76.75
76239;SHT30;65043;48.392;-4.472;2023-03-24T06:49:26;12.51;76.86
76239;SHT30;65043;48.392;-4.472;2023-03-24T06:51:52;12.57;76.98
76239;SHT30;65043;48.392;-4.472;2023-03-24T06:54:18;12.55;77.16
76239;SHT30;65043;48.392;-4.472;2023-03-24T06:56:44;12.61;77.31
76239;SHT30;65043;48.392;-4.472;2023-03-24T06:59:09;12.62;77.05
76239;SHT30;65043;48.392;-4.472;2023-03-24T07:01:35;12.61;77.17
76239;SHT30;65043;48.392;-4.472;2023-03-24T07:04:03;12.62;76.90
76239;SHT30;65043;48.392;-4.472;2023-03-24T07:06:29;12.67;76.82
76239;SHT30;65043;48.392;-4.472;2023-03-24T07:08:55;12.67;76.78
76239;SHT30;65043;48.392;-4.472;2023-03-24T07:11:21;12.68;76.82
76239;SHT30;65043;48.392;-4.472;2023-03-24T07:13:47;12.68;76.87
76239;SHT30;65043;48.392;-4.472;2023-03-24T07:16:13;12.69;76.79
76239;SHT30;65043;48.392;-4.472;2023-03-24T07:18:38;12.74;76.84
76239;SHT30;65043;48.392;-4.472;2023-03-24T07:21:04;12.74;76.72
76239;SHT30;65043;48.392;-4.472;2023-03-24T07:23:30;12.77;76.74
76239;SHT30;65043;48.392;-4.472;2023-03-24T07:25:56;12.81;76.58
76239;SHT30;65043;48.392;-4.472;2023-03-24T07:28:22;12.81;76.53
76239;SHT30;65043;48.392;-4.472;2023-03-24T07:30:47;12.85;76.52
76239;SHT30;65043;48.392;-4.472;2023-03-24T07:33:12;12.91;76.24
76239;SHT30;65043;48.392;-4.472;2023-03-24T07:35:38;12.88;76.28
76239;SHT30;65043;48.392;-4.472;2023-03-24T07:38:04;12.87;76.44
76239;SHT30;65043;48.392;-4.472;2023-03-24T07:40:30;12.88;76.50
76239;SHT30;65043;48.392;-4.472;2023-03-24T07:42:58;12.91;76.52
76239;SHT30;65043;48.392;-4.472;2023-03-24T07:45:24;12.89;76.40
76239;SHT30;65043;48.392;-4.472;2023-03-24T07:47:50;12.88;76.63
76239;SHT30;65043;48.392;-4.472;2023-03-24T07:50:16;12.91;76.65
76239;SHT30;65043;48.392;-4.472;2023-03-24T07:52:43;12.91;76.58
76239;SHT30;65043;48.392;-4.472;2023-03-24T07:55:11;12.92;76.93
76239;SHT30;65043;48.392;-4.472;2023-03-24T07:57:41;12.92;76.90
76239;SHT30;65043;48.392;-4.472;2023-03-24T08:00:08;12.96;77.04
76239;SHT30;65043;48.392;-4.472;2023-03-24T08:02:43;12.96;77.14
76239;SHT30;65043;48.392;-4.472;2023-03-24T08:05:10;12.99;76.98
76239;SHT30;65043;48.392;-4.472;2023-03-24T08:07:39;13.01;77.14
76239;SHT30;65043;48.392;-4.472;2023-03-24T08:10:08;12.98;77.11
76239;SHT30;65043;48.392;-4.472;2023-03-24T08:12:33;12.96;76.86
76239;SHT30;65043;48.392;-4.472;2023-03-24T08:14:58;12.88;76.30
76239;SHT30;65043;48.392;-4.472;2023-03-24T08:17:24;12.81;76.13
76239;SHT30;65043;48.392;-4.472;2023-03-24T08:19:49;12.77;76.03
76239;SHT30;65043;48.392;-4.472;2023-03-24T08:22:15;12.69;75.46
76239;SHT30;65043;48.392;-4.472;2023-03-24T08:24:40;12.69;75.63
76239;SHT30;65043;48.392;-4.472;2023-03-24T08:27:06;12.69;75.62
76239;SHT30;65043;48.392;-4.472;2023-03-24T08:29:34;12.71;75.82
76239;SHT30;65043;48.392;-4.472;2023-03-24T08:32:00;12.75;75.95
76239;SHT30;65043;48.392;-4.472;2023-03-24T08:34:26;12.78;76.14
76239;SHT30;65043;48.392;-4.472;2023-03-24T08:36:51;12.81;76.03
76239;SHT30;65043;48.392;-4.472;2023-03-24T08:39:18;12.84;76.21
76239;SHT30;65043;48.392;-4.472;2023-03-24T08:41:45;12.88;76.32
76239;SHT30;65043;48.392;-4.472;2023-03-24T08:44:10;12.91;76.40
76239;SHT30;65043;48.392;-4.472;2023-03-24T08:46:36;12.98;76.40
76239;SHT30;65043;48.392;-4.472;2023-03-24T08:49:02;12.98;76.38
76239;SHT30;65043;48.392;-4.472;2023-03-24T08:51:28;13.02;76.53
76239;SHT30;65043;48.392;-4.472;2023-03-24T08:53:54;13.06;76.72
76239;SHT30;65043;48.392;-4.472;2023-03-24T08:56:20;13.09;76.50
76239;SHT30;65043;48.392;-4.472;2023-03-24T08:58:45;13.12;76.58
76239;SHT30;65043;48.392;-4.472;2023-03-24T09:01:16;13.11;76.66
76239;SHT30;65043;48.392;-4.472;2023-03-24T09:03:42;13.15;76.56
76239;SHT30;65043;48.392;-4.472;2023-03-24T09:06:09;13.18;76.50
76239;SHT30;65043;48.392;-4.472;2023-03-24T09:08:34;13.22;75.87
76239;SHT30;65043;48.392;-4.472;2023-03-24T09:11:00;13.23;76.09
76239;SHT30;65043;48.392;-4.472;2023-03-24T09:13:26;13.24;76.10
76239;SHT30;65043;48.392;-4.472;2023-03-24T09:15:53;13.30;75.95
76239;SHT30;65043;48.392;-4.472;2023-03-24T09:18:21;13.33;76.08
76239;SHT30;65043;48.392;-4.472;2023-03-24T09:20:47;13.36;76.22
76239;SHT30;65043;48.392;-4.472;2023-03-24T09:23:13;13.39;76.32
76239;SHT30;65043;48.392;-4.472;2023-03-24T09:25:39;13.44;76.34
76239;SHT30;65043;48.392;-4.472;2023-03-24T09:28:04;13.47;76.00
76239;SHT30;65043;48.392;-4.472;2023-03-24T09:30:31;13.47;76.04
76239;SHT30;65043;48.392;-4.472;2023-03-24T09:32:57;13.49;76.05
76239;SHT30;65043;48.392;-4.472;2023-03-24T09:35:24;13.50;75.79
76239;SHT30;65043;48.392;-4.472;2023-03-24T09:37:50;13.52;75.86
76239;SHT30;65043;48.392;-4.472;2023-03-24T09:40:24;13.54;75.66
76239;SHT30;65043;48.392;-4.472;2023-03-24T09:45:22;13.56;75.28
76239;SHT30;65043;48.392;-4.472;2023-03-24T09:48:03;13.56;74.96
76239;SHT30;65043;48.392;-4.472;2023-03-24T09:50:32;13.56;74.73
76239;SHT30;65043;48.392;-4.472;2023-03-24T09:53:08;13.59;74.37
76239;SHT30;65043;48.392;-4.472;2023-03-24T09:55:38;13.57;74.15
76239;SHT30;65043;48.392;-4.472;2023-03-24T09:58:06;13.53;74.21
76239;SHT30;65043;48.392;-4.472;2023-03-24T10:00:33;13.54;74.48
76239;SHT30;65043;48.392;-4.472;2023-03-24T10:03:13;13.52;74.49
76239;SHT30;65043;48.392;-4.472;2023-03-24T10:05:43;13.52;74.47
76239;SHT30;65043;48.392;-4.472;2023-03-24T10:08:29;13.56;74.88
76239;SHT30;65043;48.392;-4.472;2023-03-24T10:16:45;13.63;74.71
76239;SHT30;65043;48.392;-4.472;2023-03-24T10:21:37;13.61;74.48
76239;SHT30;65043;48.392;-4.472;2023-03-24T10:24:31;13.60;74.19
76239;SHT30;65043;48.392;-4.472;2023-03-24T10:27:16;13.60;74.47
76239;SHT30;65043;48.392;-4.472;2023-03-24T10:29:46;13.64;74.80
76239;SHT30;65043;48.392;-4.472;2023-03-24T10:32:21;13.75;74.40
76239;SHT30;65043;48.392;-4.472;2023-03-24T10:34:53;13.80;74.33
76239;SHT30;65043;48.392;-4.472;2023-03-24T10:37:20;13.84;73.77
76239;SHT30;65043;48.392;-4.472;2023-03-24T10:39:46;13.82;73.64
76239;SHT30;65043;48.392;-4.472;2023-03-24T10:42:15;13.82;73.63
76239;SHT30;65043;48.392;-4.472;2023-03-24T10:44:43;13.80;74.03
76239;SHT30;65043;48.392;-4.472;2023-03-24T10:47:11;13.78;74.80
76239;SHT30;65043;48.392;-4.472;2023-03-24T10:49:37;13.77;74.54
76239;SHT30;65043;48.392;-4.472;2023-03-24T10:52:08;13.74;74.70
76239;SHT30;65043;48.392;-4.472;2023-03-24T10:54:33;13.80;74.63
76239;SHT30;65043;48.392;-4.472;2023-03-24T11:04:39;13.91;74.25
76239;SHT30;65043;48.392;-4.472;2023-03-24T11:07:19;13.92;74.49
76239;SHT30;65043;48.392;-4.472;2023-03-24T11:12:25;13.95;74.32
76239;SHT30;65043;48.392;-4.472;2023-03-24T11:14:51;13.95;74.03
76239;SHT30;65043;48.392;-4.472;2023-03-24T11:17:25;13.95;73.88
76239;SHT30;65043;48.392;-4.472;2023-03-24T11:19:56;14.00;74.18
76239;SHT30;65043;48.392;-4.472;2023-03-24T11:22:22;14.05;73.88
76239;SHT30;65043;48.392;-4.472;2023-03-24T11:24:50;14.11;73.29
76239;SHT30;65043;48.392;-4.472;2023-03-24T11:27:17;14.18;72.38
76239;SHT30;65043;48.392;-4.472;2023-03-24T11:29:48;14.15;72.70
76239;SHT30;65043;48.392;-4.472;2023-03-24T11:32:24;14.15;72.72
76239;SHT30;65043;48.392;-4.472;2023-03-24T11:35:12;14.15;73.04
76239;SHT30;65043;48.392;-4.472;2023-03-24T11:37:44;14.21;73.11
76239;SHT30;65043;48.392;-4.472;2023-03-24T11:40:17;14.22;73.14
76239;SHT30;65043;48.392;-4.472;2023-03-24T11:42:45;14.26;72.96
76239;SHT30;65043;48.392;-4.472;2023-03-24T11:47:49;14.36;72.89
76239;SHT30;65043;48.392;-4.472;2023-03-24T11:50:20;14.35;71.86
76239;SHT30;65043;48.392;-4.472;2023-03-24T11:53:10;14.26;70.82
76239;SHT30;65043;48.392;-4.472;2023-03-24T12:01:05;13.66;68.59
76239;SHT30;65043;48.392;-4.472;2023-03-24T12:03:46;13.53;68.93
76239;SHT30;65043;48.392;-4.472;2023-03-24T12:06:23;13.44;68.15
76239;SHT30;65043;48.392;-4.472;2023-03-24T12:11:47;13.36;69.86
76239;SHT30;65043;48.392;-4.472;2023-03-24T12:14:25;13.40;70.58
76239;SHT30;65043;48.392;-4.472;2023-03-24T12:17:09;13.46;70.63
76239;SHT30;65043;48.392;-4.472;2023-03-24T12:20:39;13.54;71.36
76239;SHT30;65043;48.392;-4.472;2023-03-24T12:23:12;13.66;70.61
76239;SHT30;65043;48.392;-4.472;2023-03-24T12:39:31;14.00;70.29
76239;SHT30;65043;48.392;-4.472;2023-03-24T13:03:34;14.65;69.03
76239;SHT30;65043;48.392;-4.472;2023-03-24T13:06:12;14.65;68.46
76239;SHT30;65043;48.392;-4.472;2023-03-24T13:08:40;14.73;68.09
76239;SHT30;65043;48.392;-4.472;2023-03-24T13:11:11;14.70;67.34
76239;SHT30;65043;48.392;-4.472;2023-03-24T13:13:43;14.66;67.41
76239;SHT30;65043;48.392;-4.472;2023-03-24T13:16:18;14.62;67.68
76239;SHT30;65043;48.392;-4.472;2023-03-24T13:18:53;14.65;67.49
76239;SHT30;65043;48.392;-4.472;2023-03-24T13:21:22;14.59;67.34
76239;SHT30;65043;48.392;-4.472;2023-03-24T13:24:10;14.55;67.72
76239;SHT30;65043;48.392;-4.472;2023-03-24T13:26:47;14.49;67.83
76239;SHT30;65043;48.392;-4.472;2023-03-24T13:32:22;14.36;68.60
76239;SHT30;65043;48.392;-4.472;2023-03-24T13:37:41;14.25;69.53
76239;SHT30;65043;48.392;-4.472;2023-03-24T13:40:18;14.22;69.81
76239;SHT30;65043;48.392;-4.472;2023-03-24T13:42:51;14.24;70.03
76239;SHT30;65043;48.392;-4.472;2023-03-24T13:45:40;14.24;70.51
76239;SHT30;65043;48.392;-4.472;2023-03-24T13:51:13;14.15;71.10
76239;SHT30;65043;48.392;-4.472;2023-03-24T13:56:33;14.02;67.98
76239;SHT30;65043;48.392;-4.472;2023-03-24T14:09:30;13.81;66.43
76239;SHT30;65043;48.392;-4.472;2023-03-24T14:14:29;13.80;67.93
76239;SHT30;65043;48.392;-4.472;2023-03-24T14:17:14;13.82;68.61
76239;SHT30;65043;48.392;-4.472;2023-03-24T14:19:43;13.82;68.84
76239;SHT30;65043;48.392;-4.472;2023-03-24T14:22:21;13.88;68.35
76239;SHT30;65043;48.392;-4.472;2023-03-24T14:27:41;13.84;64.72
76239;SHT30;65043;48.392;-4.472;2023-03-24T14:32:46;13.80;64.33
76239;SHT30;65043;48.392;-4.472;2023-03-24T14:35:28;13.78;63.81
76239;SHT30;65043;48.392;-4.472;2023-03-24T14:38:22;13.71;63.98
76239;SHT30;65043;48.392;-4.472;2023-03-24T14:40:57;13.67;64.22
76239;SHT30;65043;48.392;-4.472;2023-03-24T14:46:39;13.69;63.72
76239;SHT30;65043;48.392;-4.472;2023-03-24T14:49:21;13.70;63.46
76239;SHT30;65043;48.392;-4.472;2023-03-24T14:54:41;13.74;62.54
76239;SHT30;65043;48.392;-4.472;2023-03-24T14:57:40;13.71;63.15
76239;SHT30;65043;48.392;-4.472;2023-03-24T15:08:02;13.71;63.81
76239;SHT30;65043;48.392;-4.472;2023-03-24T15:10:39;13.74;64.21
76239;SHT30;65043;48.392;-4.472;2023-03-24T15:13:30;13.75;65.26
76239;SHT30;65043;48.392;-4.472;2023-03-24T15:15:56;13.73;65.56
76239;SHT30;65043;48.392;-4.472;2023-03-24T15:18:21;13.66;65.76
76239;SHT30;65043;48.392;-4.472;2023-03-24T15:20:48;13.61;65.93
76239;SHT30;65043;48.392;-4.472;2023-03-24T15:23:22;13.61;66.29
76239;SHT30;65043;48.392;-4.472;2023-03-24T15:25:48;13.59;66.29
76239;SHT30;65043;48.392;-4.472;2023-03-24T15:28:23;13.57;66.00
76239;SHT30;65043;48.392;-4.472;2023-03-24T15:30:49;13.52;66.05
76239;SHT30;65043;48.392;-4.472;2023-03-24T15:33:15;13.53;66.30
76239;SHT30;65043;48.392;-4.472;2023-03-24T15:35:42;13.60;66.25
76239;SHT30;65043;48.392;-4.472;2023-03-24T15:38:17;13.56;65.91
76239;SHT30;65043;48.392;-4.472;2023-03-24T15:40:52;13.57;65.86
76239;SHT30;65043;48.392;-4.472;2023-03-24T15:43:20;13.57;65.11
76239;SHT30;65043;48.392;-4.472;2023-03-24T15:45:53;13.52;65.17
76239;SHT30;65043;48.392;-4.472;2023-03-24T15:48:21;13.54;65.15
76239;SHT30;65043;48.392;-4.472;2023-03-24T15:50:59;13.57;65.09
76239;SHT30;65043;48.392;-4.472;2023-03-24T15:53:28;13.60;65.07
76239;SHT30;65043;48.392;-4.472;2023-03-24T15:56:27;13.67;65.14
76239;SHT30;65043;48.392;-4.472;2023-03-24T16:01:28;14.10;64.13
76239;SHT30;65043;48.392;-4.472;2023-03-24T16:04:02;14.38;62.93
76239;SHT30;65043;48.392;-4.472;2023-03-24T16:06:32;14.53;61.80
76239;SHT30;65043;48.392;-4.472;2023-03-24T16:09:07;14.63;61.23
76239;SHT30;65043;48.392;-4.472;2023-03-24T16:11:38;14.60;60.27
76239;SHT30;65043;48.392;-4.472;2023-03-24T16:14:15;14.59;60.12
76239;SHT30;65043;48.392;-4.472;2023-03-24T16:16:43;14.56;60.79
76239;SHT30;65043;48.392;-4.472;2023-03-24T16:19:09;14.49;60.72
76239;SHT30;65043;48.392;-4.472;2023-03-24T16:21:34;14.48;60.69
76239;SHT30;65043;48.392;-4.472;2023-03-24T16:24:00;14.33;58.71
76239;SHT30;65043;48.392;-4.472;2023-03-24T16:26:31;14.24;58.05
76239;SHT30;65043;48.392;-4.472;2023-03-24T16:29:17;13.91;58.01
76239;SHT30;65043;48.392;-4.472;2023-03-24T16:31:45;13.74;60.26
76239;SHT30;65043;48.392;-4.472;2023-03-24T16:34:15;13.66;60.19
76239;SHT30;65043;48.392;-4.472;2023-03-24T16:36:42;13.46;60.14
76239;SHT30;65043;48.392;-4.472;2023-03-24T16:39:13;13.35;60.83
76239;SHT30;65043;48.392;-4.472;2023-03-24T16:41:42;13.24;61.14
76239;SHT30;65043;48.392;-4.472;2023-03-24T16:44:08;13.15;61.55
76239;SHT30;65043;48.392;-4.472;2023-03-24T16:46:34;13.13;63.10
76239;SHT30;65043;48.392;-4.472;2023-03-24T16:49:01;13.18;63.53
76239;SHT30;65043;48.392;-4.472;2023-03-24T16:51:26;13.20;63.27
76239;SHT30;65043;48.392;-4.472;2023-03-24T16:53:54;13.24;63.77
76239;SHT30;65043;48.392;-4.472;2023-03-24T16:56:21;13.30;63.72
76239;SHT30;65043;48.392;-4.472;2023-03-24T16:58:48;13.36;63.67
76239;SHT30;65043;48.392;-4.472;2023-03-24T17:01:16;13.39;64.40
76239;SHT30;65043;48.392;-4.472;2023-03-24T17:04:16;13.47;64.87
76239;SHT30;65043;48.392;-4.472;2023-03-24T17:06:47;13.53;65.10
76239;SHT30;65043;48.392;-4.472;2023-03-24T17:09:15;13.57;65.63
76239;SHT30;65043;48.392;-4.472;2023-03-24T17:12:03;13.57;65.99
76239;SHT30;65043;48.392;-4.472;2023-03-24T17:14:29;13.57;66.62
76239;SHT30;65043;48.392;-4.472;2023-03-24T17:16:55;13.60;66.86
76239;SHT30;65043;48.392;-4.472;2023-03-24T17:19:22;13.56;67.43
76239;SHT30;65043;48.392;-4.472;2023-03-24T17:22:00;13.61;67.62
76239;SHT30;65043;48.392;-4.472;2023-03-24T17:24:27;13.64;67.46
76239;SHT30;65043;48.392;-4.472;2023-03-24T17:26:53;13.67;67.63
76239;SHT30;65043;48.392;-4.472;2023-03-24T17:29:18;13.71;67.36
76239;SHT30;65043;48.392;-4.472;2023-03-24T17:31:44;13.74;67.34
76239;SHT30;65043;48.392;-4.472;2023-03-24T17:34:13;13.81;67.44
76239;SHT30;65043;48.392;-4.472;2023-03-24T17:36:39;13.88;67.08
76239;SHT30;65043;48.392;-4.472;2023-03-24T17:39:05;13.91;66.89
76239;SHT30;65043;48.392;-4.472;2023-03-24T17:41:34;13.91;66.76
76239;SHT30;65043;48.392;-4.472;2023-03-24T17:44:00;13.87;66.49
76239;SHT30;65043;48.392;-4.472;2023-03-24T17:46:25;13.85;66.43
76239;SHT30;65043;48.392;-4.472;2023-03-24T17:48:50;13.82;66.30
76239;SHT30;65043;48.392;-4.472;2023-03-24T17:51:16;13.80;67.00
76239;SHT30;65043;48.392;-4.472;2023-03-24T17:53:41;13.70;66.19
76239;SHT30;65043;48.392;-4.472;2023-03-24T17:56:09;13.64;66.94
76239;SHT30;65043;48.392;-4.472;2023-03-24T17:58:35;13.61;67.42
76239;SHT30;65043;48.392;-4.472;2023-03-24T18:01:02;13.56;67.25
76239;SHT30;65043;48.392;-4.472;2023-03-24T18:03:30;13.52;68.22
76239;SHT30;65043;48.392;-4.472;2023-03-24T18:06:04;13.49;69.21
76239;SHT30;65043;48.392;-4.472;2023-03-24T18:08:30;13.44;69.93
76239;SHT30;65043;48.392;-4.472;2023-03-24T18:11:04;13.38;70.10
76239;SHT30;65043;48.392;-4.472;2023-03-24T18:13:30;13.35;70.29
76239;SHT30;65043;48.392;-4.472;2023-03-24T18:15:56;13.38;70.29
76239;SHT30;65043;48.392;-4.472;2023-03-24T18:18:21;13.36;70.24
76239;SHT30;65043;48.392;-4.472;2023-03-24T18:20:46;13.39;69.99
76239;SHT30;65043;48.392;-4.472;2023-03-24T18:23:12;13.35;70.19
76239;SHT30;65043;48.392;-4.472;2023-03-24T18:25:40;13.39;70.32
76239;SHT30;65043;48.392;-4.472;2023-03-24T18:28:06;13.38;70.26